createdAt,value
2019-04-28T00:02:17.382Z,18.99
2019-04-28T00:07:17.806Z,18.97
2019-04-28T00:12:18.297Z,18.98
2019-04-28T00:17:18.689Z,18.98
2019-04-28T00:22:20.857Z,18.98
2019-04-28T00:27:21.518Z,18.98
2019-04-28T00:32:20.998Z,18.97
2019-04-28T00:37:21.700Z,18.99
2019-04-28T00:42:22.784Z,18.98
2019-04-28T00:47:23.461Z,18.97
2019-04-28T00:52:24.048Z,18.97
2019-04-28T00:57:24.506Z,18.99
2019-04-28T01:02:24.960Z,18.98
2019-04-28T01:07:25.403Z,18.97
2019-04-28T01:12:25.827Z,18.97
2019-04-28T01:17:26.293Z,18.95
2019-04-28T01:22:26.734Z,18.97
2019-04-28T01:27:27.165Z,18.94
2019-04-28T01:32:27.642Z,18.96
2019-04-28T01:37:29.585Z,18.97
2019-04-28T01:42:30.090Z,18.96
2019-04-28T01:47:30.556Z,18.96
2019-04-28T01:52:30.288Z,18.95
2019-04-28T01:57:30.863Z,18.96
2019-04-28T02:02:31.303Z,18.95
2019-04-28T02:07:32.977Z,18.95
2019-04-28T02:12:33.817Z,18.95
2019-04-28T02:17:34.511Z,18.95
2019-04-28T02:22:34.932Z,18.94
2019-04-28T02:27:35.360Z,18.95
2019-04-28T02:32:36.005Z,18.93
2019-04-28T02:37:36.639Z,18.95
2019-04-28T02:42:37.308Z,18.94
2019-04-28T02:47:37.964Z,18.95
2019-04-28T02:52:41.222Z,18.95
2019-04-28T02:57:40.728Z,18.93
2019-04-28T03:02:41.803Z,18.94
2019-04-28T03:07:42.398Z,18.94
2019-04-28T03:12:42.804Z,18.93
2019-04-28T03:17:43.491Z,18.93
2019-04-28T03:22:44.166Z,18.93
2019-04-28T03:27:44.781Z,18.91
2019-04-28T03:32:53.790Z,18.93
2019-04-28T03:37:45.688Z,18.93
2019-04-28T03:42:46.122Z,18.93
2019-04-28T03:47:46.551Z,18.93
2019-04-28T03:52:47.001Z,18.92
2019-04-28T03:57:47.444Z,18.89
2019-04-28T04:02:50.713Z,18.90
2019-04-28T04:07:50.701Z,18.91
2019-04-28T04:12:50.859Z,18.91
2019-04-28T04:17:50.990Z,18.90
2019-04-28T04:22:51.269Z,18.93
2019-04-28T04:27:50.290Z,18.91
2019-04-28T04:32:50.826Z,18.90
2019-04-28T04:37:51.464Z,18.91
2019-04-28T04:42:52.088Z,18.88
2019-04-28T04:47:52.667Z,18.91
2019-04-28T04:52:53.157Z,18.90
2019-04-28T04:57:53.598Z,18.91
2019-04-28T05:02:55.375Z,18.91
2019-04-28T05:07:55.939Z,18.91
2019-04-28T05:12:56.368Z,18.91
2019-04-28T05:17:56.812Z,18.90
2019-04-28T05:22:57.247Z,18.93
2019-04-28T05:27:59.388Z,18.91
2019-04-28T05:32:58.149Z,18.93
2019-04-28T05:37:59.781Z,18.94
2019-04-28T05:43:01.118Z,18.93
2019-04-28T05:48:01.949Z,18.94
2019-04-28T05:53:02.564Z,18.92
2019-04-28T05:58:03.033Z,18.90
2019-04-28T06:03:04.037Z,18.94
2019-04-28T06:08:04.753Z,18.96
2019-04-28T06:13:05.159Z,18.96
2019-04-28T06:18:05.600Z,18.94
2019-04-28T06:23:06.253Z,19.00
2019-04-28T06:28:06.705Z,19.09
2019-04-28T06:33:08.282Z,19.15
2019-04-28T06:38:09.239Z,19.21
2019-04-28T06:43:09.674Z,19.14
2019-04-28T06:48:10.473Z,18.54
2019-04-28T06:53:10.982Z,17.94
2019-04-28T06:58:11.424Z,17.60
2019-04-28T07:03:22.658Z,17.61
2019-04-28T07:08:13.877Z,17.22
2019-04-28T07:13:12.747Z,17.30
2019-04-28T07:18:13.343Z,17.53
2019-04-28T07:23:13.895Z,17.36
2019-04-28T07:28:14.511Z,17.37
2019-04-28T07:33:14.921Z,17.67
2019-04-28T07:38:15.434Z,18.12
2019-04-28T07:43:16.033Z,18.30
2019-04-28T07:48:16.825Z,18.39
2019-04-28T07:53:17.333Z,18.46
2019-04-28T07:58:17.781Z,18.49
2019-04-28T08:03:18.263Z,18.53
2019-04-28T08:08:19.074Z,18.58
2019-04-28T08:13:19.705Z,18.60
2019-04-28T08:18:20.384Z,18.64
2019-04-28T08:23:20.811Z,18.68
2019-04-28T08:28:21.250Z,18.71
2019-04-28T08:33:21.698Z,18.71
2019-04-28T08:38:22.340Z,18.75
2019-04-28T08:43:22.806Z,18.74
2019-04-28T08:48:23.485Z,18.77
2019-04-28T08:53:23.879Z,18.75
2019-04-28T08:58:24.314Z,18.79
2019-04-28T09:03:24.794Z,18.82
2019-04-28T09:08:25.188Z,18.83
2019-04-28T09:13:25.649Z,18.82
2019-04-28T09:18:26.346Z,18.86
2019-04-28T09:23:27.351Z,18.84
2019-04-28T09:28:28.054Z,18.85
2019-04-28T09:33:28.913Z,18.88
2019-04-28T09:38:29.509Z,18.86
2019-04-28T09:43:29.960Z,18.91
2019-04-28T09:48:30.615Z,18.94
2019-04-28T09:53:31.050Z,18.96
2019-04-28T09:58:31.686Z,18.97
2019-04-28T10:03:32.372Z,18.97
2019-04-28T10:08:33.019Z,18.98
2019-04-28T10:13:33.639Z,18.99
2019-04-28T10:18:34.087Z,19.00
2019-04-28T10:23:34.535Z,19.01
2019-04-28T10:28:34.970Z,19.02
2019-04-28T10:33:35.409Z,19.02
2019-04-28T10:38:35.878Z,19.01
2019-04-28T10:43:36.312Z,19.00
2019-04-28T10:48:36.719Z,19.01
2019-04-28T10:53:37.193Z,18.99
2019-04-28T10:58:37.852Z,18.99
2019-04-28T11:03:38.276Z,18.99
2019-04-28T11:08:38.745Z,18.99
2019-04-28T11:13:39.184Z,18.97
2019-04-28T11:18:39.621Z,18.96
2019-04-28T11:23:40.058Z,18.96
2019-04-28T11:28:40.506Z,18.97
2019-04-28T11:33:40.947Z,18.91
2019-04-28T11:38:41.427Z,18.96
2019-04-28T11:43:42.244Z,18.98
2019-04-28T11:48:42.889Z,18.96
2019-04-28T11:53:43.794Z,18.98
2019-04-28T11:58:44.590Z,19.04
2019-04-28T12:03:45.041Z,19.05
2019-04-28T12:08:45.463Z,19.08
2019-04-28T12:13:46.126Z,19.03
2019-04-28T12:18:46.833Z,19.00
2019-04-28T12:23:47.204Z,19.01
2019-04-28T12:28:47.666Z,19.04
2019-04-28T12:33:48.171Z,19.06
2019-04-28T12:38:48.753Z,19.10
2019-04-28T12:43:49.195Z,19.06
2019-04-28T12:48:49.672Z,19.07
2019-04-28T12:53:50.145Z,19.04
2019-04-28T12:58:50.763Z,19.06
2019-04-28T13:03:51.193Z,19.02
2019-04-28T13:08:52.671Z,19.07
2019-04-28T13:13:53.139Z,19.00
2019-04-28T13:18:53.551Z,19.01
2019-04-28T13:23:54.019Z,19.04
2019-04-28T13:28:54.433Z,19.01
2019-04-28T13:33:56.139Z,19.01
2019-04-28T13:38:55.211Z,18.99
2019-04-28T13:43:55.583Z,18.99
2019-04-28T13:48:56.009Z,19.00
2019-04-28T13:53:56.475Z,19.01
2019-04-28T13:58:56.874Z,19.00
2019-04-28T14:03:57.389Z,19.03
2019-04-28T14:08:58.023Z,19.03
2019-04-28T14:13:58.660Z,19.01
2019-04-28T14:18:59.087Z,19.04
2019-04-28T14:23:59.539Z,19.01
2019-04-28T14:28:59.966Z,19.01
2019-04-28T14:34:00.398Z,19.01
2019-04-28T14:39:00.960Z,19.05
2019-04-28T14:44:01.498Z,19.01
2019-04-28T14:49:01.992Z,19.01
2019-04-28T14:54:02.452Z,19.05
2019-04-28T14:59:04.175Z,19.01
2019-04-28T15:04:03.017Z,19.01
2019-04-28T15:09:03.730Z,19.00
2019-04-28T15:14:04.209Z,19.00
2019-04-28T15:19:04.859Z,18.99
2019-04-28T15:24:05.671Z,19.01
2019-04-28T15:29:06.315Z,19.00
2019-04-28T15:34:06.975Z,19.02
2019-04-28T15:39:07.607Z,19.00
2019-04-28T15:44:08.060Z,19.02
2019-04-28T15:49:08.693Z,18.99
2019-04-28T15:54:09.173Z,19.00
2019-04-28T15:59:09.581Z,18.99
2019-04-28T16:04:10.032Z,19.00
2019-04-28T16:09:10.497Z,19.00
2019-04-28T16:14:10.912Z,18.99
2019-04-28T16:19:11.365Z,19.02
2019-04-28T16:24:11.807Z,19.00
2019-04-28T16:29:12.276Z,18.98
2019-04-28T16:34:12.749Z,19.02
2019-04-28T16:39:13.347Z,18.98
2019-04-28T16:44:13.780Z,19.00
2019-04-28T16:49:14.233Z,19.00
2019-04-28T16:54:14.889Z,19.00
2019-04-28T16:59:15.348Z,19.01
2019-04-28T17:04:16.100Z,18.99
2019-04-28T17:09:16.828Z,18.99
2019-04-28T17:14:17.258Z,18.98
2019-04-28T17:19:17.936Z,18.98
2019-04-28T17:24:18.383Z,18.98
2019-04-28T17:29:19.005Z,19.05
2019-04-28T17:34:19.649Z,19.05
2019-04-28T17:39:20.102Z,19.06
2019-04-28T17:44:20.536Z,19.05
2019-04-28T17:49:21.050Z,19.05
2019-04-28T17:54:21.670Z,19.03
2019-04-28T17:59:22.064Z,19.03
2019-04-28T18:04:22.508Z,19.03
2019-04-28T18:09:22.994Z,19.03
2019-04-28T18:14:23.424Z,19.06
2019-04-28T18:19:23.903Z,19.04
2019-04-28T18:24:24.687Z,19.11
2019-04-28T18:44:30.372Z,18.96
2019-04-28T18:49:30.855Z,18.94
2019-04-28T18:54:31.249Z,18.98
2019-04-28T18:59:31.723Z,18.98
2019-04-28T19:04:32.135Z,18.97
2019-04-28T19:09:32.649Z,18.99
2019-04-28T19:14:33.079Z,18.98
2019-04-28T19:19:33.677Z,19.01
2019-04-28T19:24:34.172Z,18.99
2019-04-28T19:29:34.787Z,19.04
2019-04-28T19:34:35.241Z,19.05
2019-04-28T19:39:35.701Z,19.02
2019-04-28T19:44:36.143Z,19.03
2019-04-28T19:49:36.578Z,19.03
2019-04-28T19:54:37.022Z,19.02
2019-04-28T19:59:37.480Z,19.01
2019-04-28T20:04:37.893Z,19.01
2019-04-28T20:09:38.360Z,19.02
2019-04-28T20:14:39.005Z,18.99
2019-04-28T20:19:39.456Z,19.00
2019-04-28T20:24:46.868Z,18.99
2019-04-28T20:29:40.724Z,18.98
2019-04-28T20:34:41.399Z,18.99
2019-04-28T20:39:41.828Z,18.96
2019-04-28T20:44:42.710Z,18.96
2019-04-28T20:49:43.129Z,18.96
2019-04-28T20:54:43.785Z,18.95
2019-04-28T20:59:44.433Z,18.95
2019-04-28T21:04:44.874Z,18.96
2019-04-28T21:09:45.522Z,18.95
2019-04-28T21:14:45.976Z,18.95
2019-04-28T21:19:46.612Z,18.94
2019-04-28T21:24:47.263Z,18.91
2019-04-28T21:29:47.919Z,18.92
2019-04-28T21:34:48.328Z,18.92
2019-04-28T21:39:48.829Z,18.90
2019-04-28T21:44:49.425Z,18.91
2019-04-28T21:49:49.919Z,18.90
2019-04-28T21:54:50.566Z,18.90
2019-04-28T21:59:51.174Z,18.92
2019-04-28T22:04:51.845Z,18.89
2019-04-28T22:09:52.280Z,18.88
2019-04-28T22:14:52.702Z,18.88
2019-04-28T22:19:53.195Z,18.88
2019-04-28T22:24:53.605Z,18.88
2019-04-28T22:29:54.052Z,18.87
2019-04-28T22:34:54.470Z,18.86
2019-04-28T22:39:54.945Z,18.85
2019-04-28T22:44:55.374Z,18.88
2019-04-28T22:49:55.824Z,18.85
2019-04-28T22:54:56.309Z,18.85
2019-04-28T22:59:56.941Z,18.84
2019-04-28T23:04:57.555Z,18.86
2019-04-28T23:09:58.040Z,18.83
2019-04-28T23:14:58.472Z,18.85
2019-04-28T23:19:58.909Z,18.83
2019-04-28T23:24:59.324Z,18.85
2019-04-28T23:29:59.763Z,18.84
2019-04-28T23:35:00.219Z,18.85
2019-04-28T23:40:00.679Z,18.82
2019-04-28T23:45:01.142Z,18.83
2019-04-28T23:50:01.580Z,18.82
2019-04-28T23:55:01.992Z,18.83
